createdAt,value
2023-04-10T05:10:38.162Z,101409.88
2023-04-10T05:13:41.595Z,101414.84
2023-04-10T05:16:44.195Z,101418.03
2023-04-10T05:19:46.658Z,101446.84
2023-04-10T05:22:49.135Z,101465.63
2023-04-10T05:25:53.129Z,101481.06
2023-04-10T05:28:56.058Z,101504.69
2023-04-10T05:31:58.790Z,101551.34
2023-04-10T05:35:01.260Z,101573.47
2023-04-10T05:38:03.712Z,101580.75
2023-04-10T05:41:07.709Z,101594.44
2023-04-10T05:44:10.417Z,101590.06
2023-04-10T05:47:12.880Z,101585.28
2023-04-10T05:50:15.486Z,101584.94
2023-04-10T05:53:21.099Z,101588.78
2023-04-10T05:56:25.178Z,101584.91
2023-04-10T05:59:27.638Z,101579.66
2023-04-10T06:02:30.326Z,101578.28
2023-04-10T06:05:32.954Z,101573.34
2023-04-10T06:08:35.681Z,101569.84
2023-04-10T06:11:39.557Z,101579.56
2023-04-10T06:14:42.030Z,101573.47
2023-04-10T06:17:44.756Z,101579.06
2023-04-10T06:20:47.252Z,101579.28
2023-04-10T06:23:49.706Z,101577.16
2023-04-10T06:26:53.496Z,101567.31
2023-04-10T06:29:56.062Z,101564.19
2023-04-10T06:32:58.717Z,101562.44
2023-04-10T06:36:01.384Z,101560.78
2023-04-10T06:39:03.972Z,101562.59
2023-04-10T06:42:07.865Z,101564.38
2023-04-10T06:45:11.305Z,101564.31
2023-04-10T06:48:14.483Z,101561.16
2023-04-10T06:51:17.220Z,101553.47
2023-04-10T06:54:19.836Z,101554.69
2023-04-10T06:57:23.753Z,101561.78
2023-04-10T07:00:26.576Z,101566.06
2023-04-10T07:03:29.192Z,101557.34
2023-04-10T07:06:31.763Z,101557.53
2023-04-10T07:09:34.234Z,101558.50
2023-04-10T07:12:38.118Z,101558.25
2023-04-10T07:15:40.599Z,101565.97
2023-04-10T07:18:44.660Z,101569.84
2023-04-10T07:21:50.095Z,101568.88
2023-04-10T07:24:52.687Z,101646.34
2023-04-10T07:27:56.681Z,101644.50
2023-04-10T07:30:59.126Z,101648.34
2023-04-10T07:34:03.448Z,101641.81
2023-04-10T07:37:05.990Z,101641.31
2023-04-10T07:40:10.021Z,101637.56
2023-04-10T07:43:13.882Z,101641.53
2023-04-10T07:46:16.441Z,101638.38
2023-04-10T07:49:19.088Z,101634.72
2023-04-10T07:52:21.583Z,101624.66
2023-04-10T07:55:24.120Z,101630.28
2023-04-10T07:58:28.006Z,101623.44
2023-04-10T08:01:30.627Z,101625.13
2023-04-10T08:04:33.494Z,101621.75
2023-04-10T08:07:36.396Z,101627.16
2023-04-10T08:10:39.508Z,101629.72
2023-04-10T08:13:43.361Z,101615.63
2023-04-10T08:16:45.952Z,101610.97
2023-04-10T08:19:48.498Z,101605.00
2023-04-10T08:22:51.395Z,101586.16
2023-04-10T08:25:53.865Z,101577.44
2023-04-10T08:28:59.843Z,101583.28
2023-04-10T08:32:02.410Z,101581.94
2023-04-10T08:35:05.635Z,101589.91
2023-04-10T08:38:14.103Z,101592.41
2023-04-10T08:41:19.876Z,101585.75
2023-04-10T08:44:23.898Z,101576.84
2023-04-10T08:47:29.464Z,101581.38
2023-04-10T08:50:35.254Z,101579.63
2023-04-10T08:53:41.198Z,101567.56
2023-04-10T08:56:46.816Z,101575.03
2023-04-10T08:59:52.404Z,101568.22
2023-04-10T09:02:58.373Z,101571.94
2023-04-10T09:06:03.270Z,101551.31
2023-04-10T09:09:06.676Z,101558.41
2023-04-10T09:12:09.239Z,101550.28
2023-04-10T09:15:13.936Z,101546.00
2023-04-10T09:18:16.460Z,101538.41
2023-04-10T09:21:20.633Z,101529.88
2023-04-10T09:24:23.887Z,101530.53
2023-04-10T09:27:31.249Z,101700.59
2023-04-10T09:30:37.545Z,101585.63
2023-04-10T09:33:40.041Z,101567.63
2023-04-10T09:36:43.271Z,101566.91
2023-04-10T09:39:46.064Z,101564.69
2023-04-10T09:42:48.736Z,101557.13
2023-04-10T09:45:54.164Z,101557.72
2023-04-10T09:48:57.215Z,101541.75
2023-04-10T09:51:59.789Z,101537.00
2023-04-10T09:55:08.594Z,101529.31
2023-04-10T09:58:12.191Z,101529.00
2023-04-10T10:01:16.497Z,101521.34
2023-04-10T10:04:19.464Z,101513.03
2023-04-10T10:07:24.843Z,101516.97
2023-04-10T10:10:27.608Z,101525.16
2023-04-10T10:13:39.502Z,101505.84
2023-04-10T10:16:48.696Z,101502.56
2023-04-10T10:19:57.973Z,101501.38
2023-04-10T10:23:03.548Z,101501.06
2023-04-10T10:26:07.377Z,101489.38
2023-04-10T10:29:13.369Z,101483.13
2023-04-10T10:32:18.320Z,101481.13
2023-04-10T10:35:22.408Z,101476.09
2023-04-10T10:38:26.308Z,101467.19
2023-04-10T10:41:33.703Z,101417.91
2023-04-10T10:44:44.076Z,101422.19
2023-04-10T10:47:52.039Z,101413.72
2023-04-10T10:50:57.410Z,101417.03
2023-04-10T10:54:00.170Z,101411.53
2023-04-10T10:57:06.388Z,101404.91
2023-04-10T11:00:10.263Z,101398.16
2023-04-10T11:03:29.596Z,101392.72
2023-04-10T11:06:52.952Z,101392.38
2023-04-10T11:09:57.264Z,101373.03
2023-04-10T11:13:17.138Z,101371.78
2023-04-10T11:16:21.276Z,101371.56
2023-04-10T11:19:26.440Z,101367.91
2023-04-10T11:22:29.228Z,101357.56
2023-04-10T11:25:47.396Z,101361.66
2023-04-10T11:28:49.997Z,101348.69
2023-04-10T11:31:56.719Z,101346.63
2023-04-10T11:35:02.405Z,101340.25
2023-04-10T11:38:14.831Z,101339.38
2023-04-10T11:41:17.394Z,101333.31
2023-04-10T11:44:27.978Z,101330.16
2023-04-10T11:47:30.621Z,101329.72
2023-04-10T11:50:36.130Z,101313.38
2023-04-10T11:53:38.827Z,101313.72
2023-04-10T11:56:43.150Z,101307.38
2023-04-10T11:59:51.409Z,101305.19
2023-04-10T12:02:54.218Z,101296.13
2023-04-10T12:05:58.418Z,101291.88
2023-04-10T12:09:14.297Z,101293.69
2023-04-10T12:12:17.283Z,101289.38
2023-04-10T12:15:29.688Z,101282.41
2023-04-10T12:18:32.666Z,101280.50
2023-04-10T12:21:38.485Z,101276.22
2023-04-10T12:24:42.531Z,101268.78
2023-04-10T12:27:49.805Z,101267.75
2023-04-10T12:30:53.801Z,101486.34
2023-04-10T12:33:57.895Z,101332.50
2023-04-10T12:37:02.813Z,101315.19
2023-04-10T12:40:09.257Z,101313.28
2023-04-10T12:43:11.715Z,101303.66
2023-04-10T12:46:26.613Z,101306.09
2023-04-10T12:49:29.104Z,101283.91
2023-04-10T12:52:33.269Z,101294.81
2023-04-10T12:55:36.008Z,101275.41
2023-04-10T12:58:39.274Z,101264.28
2023-04-10T13:01:41.859Z,101259.53
2023-04-10T13:04:44.640Z,101245.63
2023-04-10T13:07:52.640Z,101251.34
2023-04-10T13:10:58.149Z,101240.56
2023-04-10T13:14:00.924Z,101230.16
2023-04-10T13:17:03.483Z,101230.72
2023-04-10T13:20:07.410Z,101220.47
2023-04-10T13:23:11.355Z,101208.78
2023-04-10T13:26:13.851Z,101205.72
2023-04-10T13:29:16.297Z,101191.94
2023-04-10T13:32:18.763Z,101189.34
2023-04-10T13:35:21.869Z,101187.59
2023-04-10T13:38:27.457Z,101183.47
2023-04-10T13:41:29.901Z,101172.59
2023-04-10T13:44:32.479Z,101159.00
2023-04-10T13:47:35.028Z,101160.59
2023-04-10T13:50:37.567Z,101163.47
2023-04-10T13:53:41.589Z,101159.75
2023-04-10T13:56:44.469Z,101145.25
2023-04-10T13:59:46.951Z,101132.03
2023-04-10T14:02:49.507Z,101131.38
2023-04-10T14:05:52.701Z,101120.78
2023-04-10T14:08:56.711Z,101107.50
2023-04-10T14:11:59.466Z,101109.84
2023-04-10T14:15:02.088Z,101113.06
2023-04-10T14:18:04.707Z,101107.53
2023-04-10T14:21:07.878Z,101121.13
2023-04-10T14:24:12.020Z,101116.69
2023-04-10T14:27:14.640Z,101113.50
2023-04-10T14:30:17.126Z,101109.81
2023-04-10T14:33:20.808Z,101107.53
2023-04-10T14:36:23.328Z,101096.97
2023-04-10T14:39:27.186Z,101084.66
2023-04-10T14:42:30.110Z,101085.03
2023-04-10T14:45:32.660Z,101070.91
2023-04-10T14:48:35.355Z,101070.31
2023-04-10T14:51:37.866Z,101060.06
2023-04-10T14:54:41.647Z,101059.66
2023-04-10T14:57:44.185Z,101043.44
2023-04-10T15:00:46.654Z,101042.41
2023-04-10T15:03:49.377Z,101041.34
2023-04-10T15:06:52.306Z,101032.22
2023-04-10T15:09:58.567Z,101027.53
2023-04-10T15:13:01.026Z,101020.06
2023-04-10T15:16:03.493Z,101011.63
2023-04-10T15:19:06.044Z,101002.34
2023-04-10T15:22:08.501Z,101000.72
2023-04-10T15:25:12.754Z,101003.38
2023-04-10T15:28:15.318Z,100999.84
2023-04-10T15:31:17.865Z,100987.94
2023-04-10T15:34:20.474Z,100983.69
2023-04-10T15:37:24.199Z,100978.13
2023-04-10T15:40:29.281Z,100970.44
2023-04-10T15:43:31.761Z,100971.94
2023-04-10T15:46:34.457Z,100965.94
2023-04-10T15:49:38.299Z,100951.53
2023-04-10T15:52:41.503Z,100948.34
2023-04-10T15:55:45.382Z,100949.41
2023-04-10T15:58:47.851Z,100938.44
2023-04-10T16:01:50.538Z,100936.81
2023-04-10T16:04:53.235Z,100926.44
2023-04-10T16:07:56.110Z,100919.34
2023-04-10T16:10:59.895Z,100906.00
2023-04-10T16:14:02.450Z,100908.00
2023-04-10T16:17:04.918Z,100896.94
2023-04-10T16:20:08.251Z,100900.47
2023-04-10T16:23:10.914Z,100881.88
2023-04-10T16:26:14.835Z,100893.59
2023-04-10T16:29:19.959Z,100878.81
2023-04-10T16:32:22.465Z,100880.97
2023-04-10T16:35:24.984Z,100875.53
2023-04-10T16:38:27.483Z,100858.19
2023-04-10T16:41:31.358Z,100868.28
2023-04-10T16:44:33.822Z,100858.66
2023-04-10T16:47:36.473Z,100858.22
2023-04-10T16:50:39.129Z,100855.97
2023-04-10T16:53:41.658Z,100850.59
2023-04-10T16:56:45.655Z,100848.91
2023-04-10T16:59:48.132Z,100812.16
2023-04-10T17:02:50.834Z,100873.06
2023-04-10T17:05:53.331Z,100862.59
2023-04-10T17:08:55.929Z,100859.78
2023-04-10T17:11:59.958Z,100848.47
2023-04-10T17:15:02.487Z,100842.19
2023-04-10T17:18:05.013Z,100837.38
2023-04-10T17:21:11.985Z,100832.72
2023-04-10T17:24:14.904Z,100832.25
2023-04-10T17:27:20.270Z,100823.13
2023-04-10T17:30:22.733Z,100812.50
2023-04-10T17:33:25.198Z,100808.72
2023-04-10T17:36:28.100Z,100798.09
2023-04-10T17:39:30.690Z,100797.47
2023-04-10T17:42:34.531Z,100796.41
2023-04-10T17:45:38.183Z,100784.97
2023-04-10T17:48:40.713Z,100783.00
2023-04-10T17:51:43.225Z,100773.03
2023-04-10T17:54:45.680Z,100772.22
2023-04-10T17:57:49.564Z,100756.81
2023-04-10T18:00:52.243Z,100756.31
2023-04-10T18:03:54.898Z,100754.28
2023-04-10T18:06:57.412Z,100743.00
2023-04-10T18:09:59.869Z,100744.81
2023-04-10T18:13:03.678Z,100741.66
2023-04-10T18:16:07.103Z,100736.84
2023-04-10T18:19:10.005Z,100734.03
2023-04-10T18:22:12.692Z,100736.06
2023-04-10T18:25:15.631Z,100723.22
2023-04-10T18:28:20.528Z,100724.47
2023-04-10T18:31:23.069Z,100724.06
2023-04-10T18:34:25.548Z,100727.19
2023-04-10T18:37:28.038Z,100723.63
2023-04-10T18:40:30.591Z,100716.19
2023-04-10T18:43:34.411Z,100721.41
2023-04-10T18:46:36.983Z,100715.16
2023-04-10T18:49:39.658Z,100714.28
2023-04-10T18:52:42.121Z,100707.59
2023-04-10T18:55:51.372Z,100698.66
2023-04-10T18:58:55.175Z,100690.88
2023-04-10T19:01:57.729Z,100685.69
2023-04-10T19:05:00.419Z,100690.41
2023-04-10T19:08:04.545Z,100674.66
2023-04-10T19:11:08.327Z,100667.81
2023-04-10T19:14:12.135Z,100679.16
2023-04-10T19:17:14.608Z,100662.09
2023-04-10T19:20:17.071Z,100659.03
2023-04-10T19:23:39.499Z,100650.47
2023-04-10T19:26:42.028Z,100637.88
2023-04-10T19:29:45.946Z,100634.44
2023-04-10T19:32:48.456Z,100622.22
2023-04-10T19:35:51.060Z,100616.94
2023-04-10T19:38:53.901Z,100614.56
2023-04-10T19:41:57.702Z,100607.66
2023-04-10T19:45:01.546Z,100603.56
2023-04-10T19:48:05.118Z,100600.69
2023-04-10T19:51:07.764Z,100601.09
2023-04-10T19:54:10.339Z,100595.78
2023-04-10T19:57:12.881Z,100588.19
2023-04-10T20:00:17.090Z,100601.50
2023-04-10T20:03:26.449Z,100680.06
2023-04-10T20:06:29.084Z,100681.38
2023-04-10T20:09:34.096Z,100665.31
2023-04-10T20:12:36.684Z,100669.34
2023-04-10T20:15:40.586Z,100657.09
2023-04-10T20:18:43.077Z,100654.53
2023-04-10T20:21:45.612Z,100647.28
2023-04-10T20:24:48.212Z,100644.13
2023-04-10T20:27:50.777Z,100626.09
2023-04-10T20:30:54.583Z,100624.06
2023-04-10T20:33:57.163Z,100619.00
2023-04-10T20:37:00.761Z,100615.34
2023-04-10T20:40:03.384Z,100617.63
2023-04-10T20:43:10.881Z,100613.91
2023-04-10T20:46:14.846Z,100609.59
2023-04-10T20:49:17.628Z,100606.97
2023-04-10T20:52:20.182Z,100592.38
2023-04-10T20:55:22.689Z,100582.88
2023-04-10T20:58:25.248Z,100574.78
2023-04-10T21:01:29.382Z,100571.47
2023-04-10T21:04:32.675Z,100567.97
2023-04-10T21:07:35.216Z,100564.63
2023-04-10T21:10:43.889Z,100564.78
2023-04-10T21:13:46.495Z,100556.94
2023-04-10T21:16:50.456Z,100567.59
2023-04-10T21:19:53.036Z,100554.19
2023-04-10T21:22:55.541Z,100562.63
2023-04-10T21:25:58.128Z,100563.41
2023-04-10T21:29:00.599Z,100562.47
2023-04-10T21:32:04.564Z,100555.81
2023-04-10T21:35:08.417Z,100550.38
2023-04-10T21:38:12.466Z,100538.09
2023-04-10T21:41:15.368Z,100538.72
2023-04-10T21:44:18.094Z,100537.72
2023-04-10T21:47:22.026Z,100524.81
2023-04-10T21:50:25.599Z,100518.09
2023-04-10T21:53:28.340Z,100518.44
2023-04-10T21:56:30.806Z,100516.31
2023-04-10T21:59:33.410Z,100512.28
2023-04-10T22:02:37.383Z,100511.84
2023-04-10T22:05:39.973Z,100498.63
2023-04-10T22:08:42.576Z,100500.06
